Calais-Dunkerque Airport

Airport
ICAO code: 
LFAC
IATA Code: 
CQF
Summary
ICAO Region: 
EUR
Territory: 
Location: 
, Nord-Pas-de-Calais
Serving: 
Calais
Elevation: 
12 ft
Coordinates: 
Aerial View: 
50° 57' 43.549" N, 1° 57' 17.15" E
Metar
Observation
LFAC 060700Z AUTO 15005KT 6000 OVC044 04/03 Q1014
Station
CALAIS/DUNKERQUE
Date/Time
2021-12-06 07:00:00
Wind direction
150°
Wind speed
05 kts
Lowest cloud amount
overcast
Temperature
4°C
Dew point
3°C
Humidity
93%
QNH
1014 hPa
Weather condition
n/a

Runways

Designator Length Width Surface Rops
6/24 1535 45 ASP Yes/Yes
Airport map: 
Aerial View: 

SKYbrary Partners:

Safety knowledge contributed by: